createdAt,value
2023-05-08T00:01:44.538Z,10.67
2023-05-08T00:04:16.895Z,10.61
2023-05-08T00:06:47.116Z,10.57
2023-05-08T00:09:17.335Z,10.54
2023-05-08T00:11:46.534Z,10.50
2023-05-08T00:14:17.373Z,10.48
2023-05-08T00:16:48.074Z,10.44
2023-05-08T00:19:18.342Z,10.41
2023-05-08T00:21:48.866Z,10.36
2023-05-08T00:24:18.725Z,10.33
2023-05-08T00:26:52.742Z,10.30
2023-05-08T00:29:26.725Z,10.29
2023-05-08T00:31:56.676Z,10.29
2023-05-08T00:34:26.119Z,10.28
2023-05-08T00:36:57.811Z,10.26
2023-05-08T00:39:28.549Z,10.23
2023-05-08T00:42:00.291Z,10.19
2023-05-08T00:44:30.828Z,10.17
2023-05-08T00:47:00.667Z,10.15
2023-05-08T00:49:37.015Z,10.12
2023-05-08T00:52:10.734Z,10.10
2023-05-08T00:54:41.561Z,10.07
2023-05-08T00:57:13.170Z,10.07
2023-05-08T00:59:47.477Z,10.05
2023-05-08T01:02:17.558Z,10.04
2023-05-08T01:04:49.300Z,10.02
2023-05-08T01:07:19.606Z,10.01
2023-05-08T01:09:50.770Z,9.99
2023-05-08T01:12:22.107Z,9.96
2023-05-08T01:15:02.583Z,9.92
2023-05-08T01:17:38.138Z,9.88
2023-05-08T01:20:19.819Z,9.85
2023-05-08T01:22:49.574Z,9.82
2023-05-08T01:25:29.786Z,9.82
2023-05-08T01:28:05.602Z,9.82
2023-05-08T01:30:35.869Z,9.83
2023-05-08T01:33:15.767Z,9.86
2023-05-08T01:35:51.363Z,9.90
2023-05-08T01:38:23.954Z,9.90
2023-05-08T01:40:57.022Z,9.91
2023-05-08T01:43:32.150Z,9.92
2023-05-08T01:46:08.145Z,9.91
2023-05-08T01:48:43.974Z,9.89
2023-05-08T01:51:19.630Z,9.87
2023-05-08T01:53:57.633Z,9.85
2023-05-08T01:56:31.617Z,9.82
2023-05-08T01:59:06.662Z,9.81
2023-05-08T02:01:37.479Z,9.79
2023-05-08T02:04:09.703Z,9.79
2023-05-08T02:06:40.377Z,9.79
2023-05-08T02:09:13.117Z,9.78
2023-05-08T02:11:46.903Z,9.78
2023-05-08T02:14:22.921Z,9.78
2023-05-08T02:16:56.046Z,9.78
2023-05-08T02:19:29.656Z,9.77
2023-05-08T02:22:00.825Z,9.76
2023-05-08T02:24:31.239Z,9.75
2023-05-08T02:27:01.878Z,9.73
2023-05-08T02:29:33.794Z,9.71
2023-05-08T02:32:04.376Z,9.68
2023-05-08T02:34:37.180Z,9.69
2023-05-08T02:37:12.399Z,9.69
2023-05-08T02:39:43.564Z,9.69
2023-05-08T02:42:13.582Z,9.70
2023-05-08T02:44:46.250Z,9.71
2023-05-08T02:47:27.696Z,9.73
2023-05-08T02:50:12.119Z,9.75
2023-05-08T02:52:49.987Z,9.76
2023-05-08T02:55:23.016Z,9.80
2023-05-08T02:57:59.255Z,9.82
2023-05-08T03:00:32.263Z,9.88
2023-05-08T03:03:07.426Z,9.94
2023-05-08T03:05:41.852Z,9.98
2023-05-08T03:08:15.403Z,10.03
2023-05-08T03:10:47.559Z,10.06
2023-05-08T03:13:20.049Z,10.10
2023-05-08T03:15:55.647Z,10.15
2023-05-08T03:18:36.723Z,10.16
2023-05-08T03:21:06.948Z,10.16
2023-05-08T03:23:37.279Z,10.16
2023-05-08T03:26:07.817Z,10.15
2023-05-08T03:28:38.463Z,10.15
2023-05-08T03:31:08.301Z,10.15
2023-05-08T03:33:39.871Z,10.13
2023-05-08T03:36:10.216Z,10.11
2023-05-08T03:38:40.180Z,10.09
2023-05-08T03:41:10.298Z,10.09
2023-05-08T03:43:40.759Z,10.08
2023-05-08T03:46:11.071Z,10.07
2023-05-08T03:48:40.930Z,10.06
2023-05-08T03:51:11.493Z,10.06
2023-05-08T03:53:41.613Z,10.06
2023-05-08T03:56:12.721Z,10.06
2023-05-08T03:58:49.717Z,10.04
2023-05-08T04:01:25.476Z,10.04
2023-05-08T04:04:15.769Z,10.05
2023-05-08T04:06:50.917Z,10.09
2023-05-08T04:09:32.615Z,10.13
2023-05-08T04:12:02.833Z,10.19
2023-05-08T04:14:40.738Z,10.25
2023-05-08T04:17:11.883Z,10.33
2023-05-08T04:19:45.080Z,10.41
2023-05-08T04:22:16.617Z,10.49
2023-05-08T04:24:49.202Z,10.60
2023-05-08T04:27:20.546Z,10.70
2023-05-08T04:29:50.350Z,10.79
2023-05-08T04:32:19.544Z,10.88
2023-05-08T04:34:48.576Z,10.97
2023-05-08T04:37:27.600Z,11.05
2023-05-08T04:39:57.078Z,11.09
2023-05-08T04:42:29.444Z,11.13
2023-05-08T04:45:00.381Z,11.20
2023-05-08T04:47:30.033Z,11.29
2023-05-08T04:50:00.726Z,11.36
2023-05-08T04:52:31.888Z,11.42
2023-05-08T04:55:00.445Z,11.45
2023-05-08T04:57:30.234Z,11.53
2023-05-08T04:59:59.870Z,11.57
2023-05-08T05:02:29.919Z,11.66
2023-05-08T05:05:01.588Z,11.77
2023-05-08T05:07:31.990Z,11.90
2023-05-08T05:10:01.325Z,12.02
2023-05-08T05:12:31.498Z,12.12
2023-05-08T05:15:00.940Z,12.20
2023-05-08T05:17:32.258Z,12.26
2023-05-08T05:20:01.706Z,12.31
2023-05-08T05:22:33.408Z,12.39
2023-05-08T05:25:02.639Z,12.47
2023-05-08T05:27:32.304Z,12.48
2023-05-08T05:30:01.633Z,12.49
2023-05-08T05:32:32.479Z,12.55
2023-05-08T05:35:01.347Z,12.64
2023-05-08T05:37:30.743Z,12.70
2023-05-08T05:39:59.506Z,12.74
2023-05-08T05:42:29.012Z,12.89
2023-05-08T05:44:58.438Z,13.00
2023-05-08T05:47:27.561Z,13.16
2023-05-08T05:49:57.594Z,13.38
2023-05-08T05:52:27.670Z,13.60
2023-05-08T05:54:56.655Z,13.76
2023-05-08T05:57:25.674Z,13.92
2023-05-08T05:59:55.104Z,14.06
2023-05-08T06:02:24.715Z,14.17
2023-05-08T06:04:53.439Z,14.27
2023-05-08T06:07:22.117Z,14.41
2023-05-08T06:09:53.495Z,14.51
2023-05-08T06:12:23.039Z,14.51
2023-05-08T06:14:53.308Z,14.37
2023-05-08T06:17:22.819Z,14.55
2023-05-08T06:19:54.755Z,14.69
2023-05-08T06:22:24.788Z,14.68
2023-05-08T06:24:54.350Z,14.60
2023-05-08T06:27:24.005Z,14.74
2023-05-08T06:29:53.708Z,14.67
2023-05-08T06:32:22.841Z,14.66
2023-05-08T06:34:51.995Z,14.88
2023-05-08T06:37:20.691Z,15.02
2023-05-08T06:39:54.580Z,15.04
2023-05-08T06:42:29.430Z,14.96
2023-05-08T06:44:58.919Z,15.04
2023-05-08T06:47:27.979Z,15.03
2023-05-08T06:49:57.145Z,14.99
2023-05-08T06:52:26.205Z,15.15
2023-05-08T06:54:54.808Z,15.31
2023-05-08T06:57:24.935Z,15.28
2023-05-08T06:59:54.629Z,15.27
2023-05-08T07:02:23.671Z,15.28
2023-05-08T07:04:52.752Z,15.31
2023-05-08T07:07:21.506Z,15.36
2023-05-08T07:09:50.291Z,15.28
2023-05-08T07:12:21.432Z,15.33
2023-05-08T07:14:50.896Z,15.30
2023-05-08T07:17:19.730Z,15.24
2023-05-08T07:19:51.239Z,15.27
2023-05-08T07:22:20.409Z,15.24
2023-05-08T07:24:49.900Z,15.15
2023-05-08T07:27:18.805Z,14.97
2023-05-08T07:29:47.448Z,15.03
2023-05-08T07:32:16.653Z,15.30
2023-05-08T07:34:45.334Z,15.66
2023-05-08T07:37:14.632Z,16.21
2023-05-08T07:39:43.521Z,16.46
2023-05-08T07:42:12.108Z,16.72
2023-05-08T07:44:53.630Z,16.84
2023-05-08T07:47:23.612Z,16.76
2023-05-08T07:49:53.734Z,16.63
2023-05-08T07:52:22.442Z,16.61
2023-05-08T07:54:51.503Z,16.60
2023-05-08T07:57:20.166Z,16.61
2023-05-08T07:59:48.975Z,16.63
2023-05-08T08:02:17.709Z,16.59
2023-05-08T08:04:46.553Z,16.56
2023-05-08T08:07:15.859Z,16.58
2023-05-08T08:09:44.648Z,16.87
2023-05-08T08:12:13.836Z,17.46
2023-05-08T08:14:42.628Z,17.95
2023-05-08T08:17:12.368Z,18.10
2023-05-08T08:19:41.124Z,18.24
2023-05-08T08:22:10.033Z,18.41
2023-05-08T08:24:39.439Z,18.48
2023-05-08T08:27:09.019Z,18.85
2023-05-08T08:29:37.918Z,18.86
2023-05-08T08:32:07.969Z,18.63
2023-05-08T08:34:36.817Z,18.35
2023-05-08T08:37:06.892Z,18.14
2023-05-08T08:39:36.349Z,18.72
2023-05-08T08:42:05.331Z,19.16
2023-05-08T08:44:33.920Z,19.45
2023-05-08T08:47:03.323Z,20.12
2023-05-08T08:49:33.337Z,20.31
2023-05-08T08:52:20.764Z,20.32
2023-05-08T08:54:49.984Z,20.29
2023-05-08T08:57:21.131Z,20.10
2023-05-08T08:59:50.425Z,20.03
2023-05-08T09:02:20.178Z,19.94
2023-05-08T09:04:52.499Z,20.26
2023-05-08T09:07:21.167Z,20.56
2023-05-08T09:09:50.685Z,21.06
2023-05-08T09:12:19.153Z,21.51
2023-05-08T09:14:47.846Z,21.51
2023-05-08T09:17:17.589Z,21.94
2023-05-08T09:19:49.223Z,22.39
2023-05-08T09:22:18.011Z,22.73
2023-05-08T09:25:00.109Z,23.15
2023-05-08T09:27:29.666Z,22.64
2023-05-08T09:30:06.210Z,22.48
2023-05-08T09:32:36.228Z,22.52
2023-05-08T09:35:05.978Z,22.19
2023-05-08T09:37:37.971Z,22.05
2023-05-08T09:40:16.738Z,21.73
2023-05-08T09:42:46.179Z,21.53
2023-05-08T09:45:32.443Z,21.18
2023-05-08T09:48:01.437Z,21.26
2023-05-08T09:50:30.875Z,21.00
2023-05-08T09:52:59.888Z,20.91
2023-05-08T09:55:46.909Z,21.25
2023-05-08T09:58:15.781Z,21.96
2023-05-08T10:00:45.018Z,22.61
2023-05-08T10:03:13.652Z,23.29
2023-05-08T10:05:42.774Z,23.72
2023-05-08T10:08:19.136Z,24.10
2023-05-08T10:10:48.228Z,24.48
2023-05-08T10:13:17.059Z,24.77
2023-05-08T10:15:46.017Z,24.92
2023-05-08T10:18:17.317Z,24.82
2023-05-08T10:20:48.715Z,24.85
2023-05-08T10:23:19.404Z,24.61
2023-05-08T10:25:52.131Z,24.72
2023-05-08T10:28:30.334Z,24.28
2023-05-08T10:31:01.614Z,23.82
2023-05-08T10:33:32.103Z,22.98
2023-05-08T10:36:01.812Z,22.12
2023-05-08T10:38:32.132Z,21.88
2023-05-08T10:41:01.684Z,21.83
2023-05-08T10:43:31.646Z,22.11
2023-05-08T10:46:05.833Z,22.23
2023-05-08T10:48:35.206Z,22.53
2023-05-08T10:51:08.560Z,22.85
2023-05-08T10:53:40.016Z,22.91
2023-05-08T10:56:10.547Z,22.87
2023-05-08T10:58:42.097Z,23.37
2023-05-08T11:01:12.092Z,23.58
2023-05-08T11:03:45.990Z,23.76
2023-05-08T11:06:15.425Z,24.05
2023-05-08T11:08:46.938Z,24.25
2023-05-08T11:11:24.866Z,24.44
2023-05-08T11:14:00.378Z,24.15
2023-05-08T11:16:47.997Z,24.01
2023-05-08T11:19:17.069Z,23.61
2023-05-08T11:22:04.979Z,23.82
2023-05-08T11:24:37.468Z,23.85
2023-05-08T11:27:06.208Z,24.35
2023-05-08T11:29:34.716Z,24.68
2023-05-08T11:32:04.648Z,24.55
2023-05-08T11:34:43.424Z,24.54
2023-05-08T11:37:26.999Z,24.17
2023-05-08T11:40:15.800Z,24.27
2023-05-08T11:42:45.554Z,24.01
2023-05-08T11:45:14.651Z,23.88
2023-05-08T11:47:44.808Z,23.78
2023-05-08T11:50:14.495Z,23.94
2023-05-08T11:52:43.927Z,23.63
2023-05-08T11:55:14.213Z,23.85
2023-05-08T11:57:43.096Z,23.42
2023-05-08T12:00:13.469Z,23.37
2023-05-08T12:02:44.319Z,23.41
2023-05-08T12:05:13.176Z,22.97
2023-05-08T12:07:47.999Z,22.67
2023-05-08T12:10:17.964Z,22.42
2023-05-08T12:12:47.344Z,22.51
2023-05-08T12:15:15.983Z,22.21
2023-05-08T12:17:44.582Z,22.07
2023-05-08T12:20:17.588Z,21.78
2023-05-08T12:22:53.298Z,21.80
2023-05-08T12:25:22.315Z,21.73
2023-05-08T12:27:51.805Z,21.63
2023-05-08T12:30:20.826Z,21.56
2023-05-08T12:32:50.025Z,21.35
2023-05-08T12:35:19.502Z,21.39
2023-05-08T12:37:48.177Z,21.27
2023-05-08T12:40:36.340Z,21.12
2023-05-08T12:43:05.120Z,21.07
2023-05-08T12:45:35.341Z,21.11
2023-05-08T12:48:05.299Z,21.27
2023-05-08T12:50:39.867Z,21.31
2023-05-08T12:53:10.092Z,21.21
2023-05-08T12:55:39.598Z,21.19
2023-05-08T12:58:16.097Z,21.14
2023-05-08T13:00:46.806Z,20.70
2023-05-08T13:03:28.995Z,20.36
2023-05-08T13:05:59.224Z,20.14
2023-05-08T13:08:33.140Z,19.83
2023-05-08T13:11:02.634Z,19.64
2023-05-08T13:13:32.960Z,19.45
2023-05-08T13:16:05.401Z,19.18
2023-05-08T13:18:37.033Z,19.14
2023-05-08T13:21:06.149Z,19.06
2023-05-08T13:23:34.682Z,18.99
2023-05-08T13:26:04.449Z,18.74
2023-05-08T13:28:33.063Z,18.60
2023-05-08T13:31:02.261Z,18.42
2023-05-08T13:33:30.844Z,18.04
2023-05-08T13:35:59.839Z,17.79
2023-05-08T13:38:29.644Z,17.60
2023-05-08T13:40:58.134Z,17.50
2023-05-08T13:43:27.023Z,17.26
2023-05-08T13:45:55.640Z,16.87
2023-05-08T13:48:24.382Z,16.56
2023-05-08T13:50:52.991Z,16.15
2023-05-08T13:53:22.271Z,16.01
2023-05-08T13:55:51.451Z,15.90
2023-05-08T13:58:20.461Z,15.75
2023-05-08T14:00:50.222Z,15.56
2023-05-08T14:03:19.060Z,15.52
2023-05-08T14:05:47.648Z,15.27
2023-05-08T14:08:16.641Z,14.90
2023-05-08T14:10:45.634Z,14.65
2023-05-08T14:13:14.369Z,14.46
2023-05-08T14:15:43.569Z,14.28
2023-05-08T14:18:12.673Z,14.04
2023-05-08T14:20:41.455Z,13.90
2023-05-08T14:23:11.011Z,13.82
2023-05-08T14:25:39.588Z,13.78
2023-05-08T14:28:08.074Z,13.81
2023-05-08T14:30:36.962Z,13.84
2023-05-08T14:33:05.677Z,13.81
2023-05-08T14:35:34.221Z,13.80
2023-05-08T14:38:02.805Z,13.75
2023-05-08T14:40:31.690Z,13.64
2023-05-08T14:43:00.589Z,13.59
2023-05-08T14:45:28.970Z,13.52
2023-05-08T14:47:57.725Z,13.42
2023-05-08T14:50:28.060Z,13.38
2023-05-08T14:52:56.704Z,13.29
2023-05-08T14:55:26.497Z,13.16
2023-05-08T14:57:55.160Z,12.95
2023-05-08T15:00:23.750Z,12.79
2023-05-08T15:02:52.653Z,12.52
2023-05-08T15:05:21.484Z,12.43
2023-05-08T15:07:50.818Z,12.28
2023-05-08T15:10:19.838Z,12.12
2023-05-08T15:12:48.342Z,12.06
2023-05-08T15:15:17.518Z,12.01
2023-05-08T15:17:46.313Z,11.94
2023-05-08T15:20:15.494Z,11.86
2023-05-08T15:22:44.182Z,11.81
2023-05-08T15:25:13.038Z,11.79
2023-05-08T15:27:42.155Z,11.71
2023-05-08T15:30:11.569Z,11.55
2023-05-08T15:32:40.586Z,11.48
2023-05-08T15:35:09.678Z,11.39
2023-05-08T15:37:39.373Z,11.26
2023-05-08T15:40:08.441Z,11.17
2023-05-08T15:42:37.789Z,11.09
2023-05-08T15:45:06.742Z,11.02
2023-05-08T15:47:35.551Z,10.99
2023-05-08T15:50:04.621Z,10.99
2023-05-08T15:52:33.199Z,10.96
2023-05-08T15:55:01.997Z,10.87
2023-05-08T15:57:30.781Z,10.83
2023-05-08T15:59:59.671Z,10.81
2023-05-08T16:02:28.150Z,10.80
2023-05-08T16:04:57.042Z,10.80
2023-05-08T16:07:26.342Z,10.79
2023-05-08T16:09:54.931Z,10.79
2023-05-08T16:12:23.309Z,10.81
2023-05-08T16:14:52.012Z,10.79
2023-05-08T16:17:20.573Z,10.75
2023-05-08T16:19:49.364Z,10.70
2023-05-08T16:22:18.257Z,10.62
2023-05-08T16:24:46.840Z,10.57
2023-05-08T16:27:15.435Z,10.54
2023-05-08T16:29:44.002Z,10.53
2023-05-08T16:32:13.101Z,10.51
2023-05-08T16:34:41.474Z,10.47
2023-05-08T16:37:10.272Z,10.51
2023-05-08T16:39:39.667Z,10.52
2023-05-08T16:42:08.327Z,10.48
2023-05-08T16:44:37.038Z,10.48
2023-05-08T16:47:06.218Z,10.43
2023-05-08T16:49:34.820Z,10.43
2023-05-08T16:52:03.915Z,10.42
2023-05-08T16:54:34.254Z,10.41
2023-05-08T16:57:03.440Z,10.37
2023-05-08T16:59:32.840Z,10.32
2023-05-08T17:02:01.627Z,10.30
2023-05-08T17:04:30.931Z,10.25
2023-05-08T17:07:00.425Z,10.16
2023-05-08T17:09:29.219Z,10.11
2023-05-08T17:11:59.543Z,10.07
2023-05-08T17:14:28.020Z,10.05
2023-05-08T17:16:56.641Z,10.16
2023-05-08T17:19:25.605Z,10.20
2023-05-08T17:21:54.081Z,10.21
2023-05-08T17:24:22.658Z,10.22
2023-05-08T17:26:51.141Z,10.24
2023-05-08T17:29:19.938Z,10.24
2023-05-08T17:31:48.711Z,10.23
2023-05-08T17:34:17.560Z,10.19
2023-05-08T17:36:46.300Z,10.14
2023-05-08T17:39:15.079Z,10.12
2023-05-08T17:41:43.563Z,10.06
2023-05-08T17:44:12.046Z,9.97
2023-05-08T17:46:40.628Z,9.89
2023-05-08T17:49:09.719Z,9.82
2023-05-08T17:51:38.616Z,9.78
2023-05-08T17:54:07.909Z,9.69
2023-05-08T17:56:36.343Z,9.61
2023-05-08T17:59:04.970Z,9.51
2023-05-08T18:01:33.842Z,9.37
2023-05-08T18:04:02.863Z,9.13
2023-05-08T18:06:31.544Z,8.89
2023-05-08T18:09:00.338Z,8.69
2023-05-08T18:11:29.222Z,8.54
2023-05-08T18:13:57.819Z,8.33
2023-05-08T18:16:26.432Z,8.20
2023-05-08T18:18:54.972Z,8.09
2023-05-08T18:21:24.681Z,8.02
2023-05-08T18:23:53.470Z,7.95
2023-05-08T18:26:22.162Z,7.86
2023-05-08T18:28:50.954Z,7.77
2023-05-08T18:31:19.554Z,7.66
2023-05-08T18:33:48.218Z,7.64
2023-05-08T18:36:16.701Z,7.64
2023-05-08T18:38:45.480Z,7.61
2023-05-08T18:41:13.859Z,7.59
2023-05-08T18:43:42.542Z,7.56
2023-05-08T18:46:15.045Z,7.52
2023-05-08T18:48:44.019Z,7.44
2023-05-08T18:51:12.797Z,7.34
2023-05-08T18:53:41.290Z,7.22
2023-05-08T18:56:12.738Z,7.11
2023-05-08T18:58:41.931Z,7.01
2023-05-08T19:01:10.964Z,6.89
2023-05-08T19:03:39.628Z,6.77
2023-05-08T19:06:08.499Z,6.65
2023-05-08T19:08:36.896Z,6.58
2023-05-08T19:11:05.557Z,6.51
2023-05-08T19:13:34.142Z,6.46
2023-05-08T19:16:03.891Z,6.41
2023-05-08T19:18:32.746Z,6.36
2023-05-08T19:21:01.940Z,6.33
2023-05-08T19:23:31.768Z,6.30
2023-05-08T19:26:00.544Z,6.24
2023-05-08T19:28:29.328Z,6.19
2023-05-08T19:30:57.807Z,6.09
2023-05-08T19:33:26.408Z,6.02
2023-05-08T19:35:55.096Z,5.96
2023-05-08T19:38:23.762Z,5.89
2023-05-08T19:40:57.751Z,5.84
2023-05-08T19:43:27.592Z,5.82
2023-05-08T19:45:56.518Z,5.79
2023-05-08T19:48:25.151Z,5.75
2023-05-08T19:50:54.987Z,5.71
2023-05-08T19:53:24.335Z,5.66
2023-05-08T19:55:53.467Z,5.61
2023-05-08T19:58:22.056Z,5.59
2023-05-08T20:00:51.228Z,5.55
2023-05-08T20:03:22.768Z,5.53
2023-05-08T20:05:52.484Z,5.49
2023-05-08T20:08:21.618Z,5.45
2023-05-08T20:10:50.609Z,5.40
2023-05-08T20:13:19.509Z,5.35
2023-05-08T20:15:48.406Z,5.29
2023-05-08T20:18:16.863Z,5.24
2023-05-08T20:20:46.622Z,5.15
2023-05-08T20:23:15.357Z,5.07
2023-05-08T20:25:46.816Z,4.99
2023-05-08T20:28:15.910Z,4.95
2023-05-08T20:30:44.614Z,4.91
2023-05-08T20:33:13.584Z,4.87
2023-05-08T20:35:42.274Z,4.83
2023-05-08T20:38:10.955Z,4.81
2023-05-08T20:40:39.741Z,4.79
2023-05-08T20:43:08.221Z,4.77
2023-05-08T20:45:37.440Z,4.74
2023-05-08T20:48:06.334Z,4.72
2023-05-08T20:50:35.100Z,4.70
2023-05-08T20:53:03.984Z,4.69
2023-05-08T20:55:32.790Z,4.69
2023-05-08T20:58:02.606Z,4.69
2023-05-08T21:00:31.282Z,4.68
2023-05-08T21:02:59.978Z,4.68
2023-05-08T21:05:28.550Z,4.68
2023-05-08T21:08:02.604Z,4.69
2023-05-08T21:10:31.749Z,4.68
2023-05-08T21:13:00.455Z,4.67
2023-05-08T21:15:29.541Z,4.67
2023-05-08T21:17:58.350Z,4.65
2023-05-08T21:20:28.157Z,4.61
2023-05-08T21:22:57.253Z,4.58
2023-05-08T21:25:26.050Z,4.55
2023-05-08T21:27:55.847Z,4.53
2023-05-08T21:30:24.799Z,4.52
2023-05-08T21:32:53.696Z,4.51
2023-05-08T21:35:23.236Z,4.50
2023-05-08T21:37:54.543Z,4.50
2023-05-08T21:40:24.595Z,4.51
2023-05-08T21:42:53.579Z,4.54
2023-05-08T21:45:23.105Z,4.58
2023-05-08T21:47:52.437Z,4.60
2023-05-08T21:50:21.699Z,4.58
2023-05-08T21:52:52.049Z,4.57
2023-05-08T21:55:22.763Z,4.60
2023-05-08T21:57:52.875Z,4.63
2023-05-08T22:00:23.072Z,4.63
2023-05-08T22:02:52.890Z,4.57
2023-05-08T22:05:23.443Z,4.52
2023-05-08T22:07:53.012Z,4.46
2023-05-08T22:10:22.682Z,4.41
2023-05-08T22:12:52.316Z,4.35
2023-05-08T22:15:29.584Z,4.26
2023-05-08T22:17:59.859Z,4.15
2023-05-08T22:20:29.368Z,4.04
2023-05-08T22:22:58.865Z,3.97
2023-05-08T22:25:28.180Z,3.91
2023-05-08T22:27:59.820Z,3.85
2023-05-08T22:30:30.733Z,3.79
2023-05-08T22:33:00.542Z,3.73
2023-05-08T22:35:30.727Z,3.69
2023-05-08T22:38:00.861Z,3.66
2023-05-08T22:40:31.043Z,3.63
2023-05-08T22:43:01.618Z,3.61
2023-05-08T22:45:33.755Z,3.56
2023-05-08T22:48:04.417Z,3.52
2023-05-08T22:50:33.871Z,3.48
2023-05-08T22:53:08.490Z,3.46
2023-05-08T22:55:38.710Z,3.42
2023-05-08T22:58:08.948Z,3.38
2023-05-08T23:00:40.187Z,3.36
2023-05-08T23:03:09.339Z,3.32
2023-05-08T23:05:38.684Z,3.30
2023-05-08T23:08:08.291Z,3.25
2023-05-08T23:10:37.688Z,3.21
2023-05-08T23:13:07.199Z,3.16
2023-05-08T23:15:37.891Z,3.12
2023-05-08T23:18:07.440Z,3.07
2023-05-08T23:20:38.209Z,3.04
2023-05-08T23:23:07.867Z,3.00
2023-05-08T23:25:36.965Z,2.95
2023-05-08T23:28:07.099Z,2.90
2023-05-08T23:30:36.293Z,2.88
2023-05-08T23:33:05.608Z,2.81
2023-05-08T23:35:36.239Z,2.75
2023-05-08T23:38:06.240Z,2.70
2023-05-08T23:40:36.705Z,2.67
2023-05-08T23:43:06.780Z,2.64
2023-05-08T23:45:36.206Z,2.62
2023-05-08T23:48:05.398Z,2.59
2023-05-08T23:50:35.466Z,2.57
2023-05-08T23:53:05.971Z,2.55
2023-05-08T23:55:37.384Z,2.54
2023-05-08T23:58:07.032Z,2.50
